Time;durP1;ratioP1;P1;durP2;ratioP2;P2;SDS_P1;SDS_P2;PMS_P1;PMS_P2;Temp;Humidity;BMP_temperature;BMP_pressure;BME280_temperature;BME280_humidity;BME280_pressure;Samples;Min_cycle;Max_cycle;Signal;HPM_P1;HPM_P2
2022/03/12 00:00:30;;;;;;;20.10;12.50;;;;;;;-9.04;51.64;98604.33;110241;1246;59743;-64
2022/03/12 00:03:08;;;;;;;9.60;4.40;;;;;;;-9.09;52.10;98607.94;110161;1244;70961;-67
2022/03/12 00:05:42;;;;;;;14.10;8.50;;;;;;;-9.14;51.36;98610.36;110161;1245;68696;-65
2022/03/12 00:08:13;;;;;;;17.80;9.50;;;;;;;-9.20;54.09;98614.42;110153;1247;69395;-68
2022/03/12 00:10:46;;;;;;;12.40;7.90;;;;;;;-9.27;55.29;98621.35;110402;1244;59767;-67
2022/03/12 00:13:15;;;;;;;17.20;10.40;;;;;;;-9.33;56.89;98623.07;110197;1246;59698;-66
2022/03/12 00:15:47;;;;;;;17.30;10.70;;;;;;;-9.42;58.00;98622.30;110451;1244;71848;-67
2022/03/12 00:18:19;;;;;;;17.90;10.60;;;;;;;-9.49;57.91;98621.29;110178;1245;68452;-68
2022/03/12 00:20:50;;;;;;;19.30;12.00;;;;;;;-9.52;56.33;98618.35;110331;1244;69210;-66
2022/03/12 00:23:21;;;;;;;16.80;10.10;;;;;;;-9.55;55.91;98614.23;110137;1247;59780;-68
2022/03/12 00:25:51;;;;;;;17.90;10.40;;;;;;;-9.59;57.07;98615.47;110105;1247;59721;-67
2022/03/12 00:28:20;;;;;;;;;;;;;;;-9.61;58.40;98615.27;110082;1246;71553;-67
2022/03/12 00:30:52;;;;;;;8.60;5.80;;;;;;;-9.59;57.37;98616.81;110114;1247;66701;-66
2022/03/12 00:33:24;;;;;;;12.00;6.90;;;;;;;-9.53;54.41;98616.47;110157;1245;69242;-66
2022/03/12 00:35:54;;;;;;;18.60;11.40;;;;;;;-9.53;53.97;98618.31;110397;1244;59741;-67
2022/03/12 00:38:24;;;;;;;9.00;5.20;;;;;;;-9.55;55.48;98618.95;110024;1245;59675;-66
2022/03/12 00:41:02;;;;;;;10.80;6.50;;;;;;;-9.56;53.56;98619.42;110251;1246;70845;-64
2022/03/12 00:43:32;;;;;;;18.70;11.30;;;;;;;-9.57;54.16;98620.22;110336;1244;68723;-67
2022/03/12 00:46:05;;;;;;;;;;;;;;;-9.62;56.62;98624.16;110116;1245;68978;-68
2022/03/12 00:48:35;;;;;;;6.10;4.40;;;;;;;-9.65;54.81;98623.40;110387;1244;59728;-66
2022/03/12 00:51:09;;;;;;;13.30;7.90;;;;;;;-9.67;56.68;98626.58;110270;1244;59712;-69
2022/03/12 00:53:40;;;;;;;10.10;5.80;;;;;;;-9.70;55.54;98628.84;110077;1246;71400;-67
2022/03/12 00:56:11;;;;;;;12.50;7.80;;;;;;;-9.72;54.03;98631.33;110043;1247;67684;-68
2022/03/12 00:58:45;;;;;;;8.10;5.50;;;;;;;-9.76;55.44;98635.79;110093;1247;68459;-66
2022/03/12 01:01:16;;;;;;;8.90;5.70;;;;;;;-9.78;53.85;98636.25;110166;1244;59757;-67
2022/03/12 01:03:48;;;;;;;18.00;10.50;;;;;;;-9.81;53.52;98639.19;110078;1247;59659;-66
2022/03/12 01:06:18;;;;;;;15.60;10.10;;;;;;;-9.86;59.08;98637.71;110096;1247;71500;-67
2022/03/12 01:08:48;;;;;;;8.30;5.30;;;;;;;-9.89;59.19;98637.09;109974;1247;68437;-68
2022/03/12 01:11:19;;;;;;;8.80;4.90;;;;;;;-9.92;56.38;98637.88;110056;1247;69407;-68
2022/03/12 01:13:50;;;;;;;11.40;6.50;;;;;;;-9.96;57.32;98639.29;109990;1246;59688;-69
2022/03/12 01:16:19;;;;;;;;;;;;;;;-9.97;55.51;98639.09;110054;1246;59727;-69
2022/03/12 01:18:50;;;;;;;12.90;8.10;;;;;;;-9.98;54.96;98637.87;110090;1247;70928;-67
2022/03/12 01:21:20;;;;;;;16.50;10.60;;;;;;;-10.02;57.89;98635.55;110050;1246;68571;-70
2022/03/12 01:23:51;;;;;;;9.50;6.40;;;;;;;-10.04;58.85;98636.86;110010;1247;69310;-62
2022/03/12 01:26:22;;;;;;;12.20;8.40;;;;;;;-10.02;56.85;98640.81;110050;1247;59708;-62
2022/03/12 01:28:53;;;;;;;13.20;7.90;;;;;;;-10.04;56.78;98639.40;110108;1246;59702;-66
2022/03/12 01:31:23;;;;;;;8.60;5.30;;;;;;;-10.05;55.46;98644.44;110109;1247;70825;-65
2022/03/12 01:33:54;;;;;;;8.20;5.70;;;;;;;-9.99;55.26;98646.45;109956;1247;68411;-63
2022/03/12 01:36:24;;;;;;;7.00;5.90;;;;;;;-9.96;55.74;98646.70;110164;1247;70523;-65
2022/03/12 01:38:55;;;;;;;;;;;;;;;-9.97;56.00;98645.50;110121;1247;59728;-67
2022/03/12 01:41:28;;;;;;;10.00;6.00;;;;;;;-10.08;59.11;98649.23;110111;1247;60026;-67
2022/03/12 01:44:01;;;;;;;14.00;7.80;;;;;;;-10.17;56.95;98654.18;109926;1247;70631;-66
2022/03/12 01:46:38;;;;;;;8.30;4.40;;;;;;;-10.25;56.71;98657.85;110087;1246;68387;-66
2022/03/12 01:49:16;;;;;;;13.60;8.50;;;;;;;-10.31;55.68;98656.02;110052;1247;68463;-66
2022/03/12 01:51:49;;;;;;;15.40;9.30;;;;;;;-10.36;56.68;98659.23;110151;1247;59671;-67
2022/03/12 01:54:26;;;;;;;13.00;6.60;;;;;;;-10.41;57.96;98660.62;110137;1247;59689;-68
2022/03/12 01:56:58;;;;;;;16.30;8.40;;;;;;;-10.43;56.47;98661.58;110264;1245;70791;-69
2022/03/12 01:59:28;;;;;;;16.80;8.20;;;;;;;-10.49;57.75;98667.28;110031;1247;67663;-61
2022/03/12 02:01:59;;;;;;;7.50;4.60;;;;;;;-10.56;59.95;98666.41;109937;1245;69471;-68
2022/03/12 02:04:30;;;;;;;12.10;7.10;;;;;;;-10.60;57.84;98667.29;110207;1245;59685;-61
2022/03/12 02:07:00;;;;;;;18.10;10.80;;;;;;;-10.65;58.94;98666.98;110343;1244;59761;-67
2022/03/12 02:09:31;;;;;;;19.40;10.50;;;;;;;-10.73;64.48;98671.95;110115;1244;70956;-67
2022/03/12 02:12:01;;;;;;;17.10;9.60;;;;;;;-10.77;63.52;98668.45;110173;1246;67769;-65
2022/03/12 02:14:31;;;;;;;17.20;10.60;;;;;;;-10.80;64.04;98667.85;110133;1247;69414;-68
2022/03/12 02:17:08;;;;;;;17.80;8.60;;;;;;;-10.84;64.45;98670.77;109926;1247;59800;-68
2022/03/12 02:19:40;;;;;;;17.90;9.40;;;;;;;-10.83;65.12;98673.31;110145;1246;59672;-68
2022/03/12 02:22:15;;;;;;;11.60;6.40;;;;;;;-10.78;63.21;98677.36;110424;1244;70544;-66
2022/03/12 02:24:46;;;;;;;14.20;7.30;;;;;;;-10.67;60.47;98674.14;110405;1244;67821;-67
2022/03/12 02:27:17;;;;;;;12.10;6.70;;;;;;;-10.64;61.13;98673.56;110395;1244;69850;-67
2022/03/12 02:29:56;;;;;;;9.10;5.40;;;;;;;-10.63;59.01;98674.80;109969;1247;59763;-67
2022/03/12 02:32:28;;;;;;;17.10;10.00;;;;;;;-10.61;59.74;98673.84;110090;1247;59676;-68
2022/03/12 02:34:59;;;;;;;14.30;9.50;;;;;;;-10.71;64.58;98677.24;110002;1248;70860;-67
2022/03/12 02:37:33;;;;;;;16.60;11.90;;;;;;;-10.83;65.64;98679.06;110287;1244;68396;-70
2022/03/12 02:40:13;;;;;;;17.20;10.50;;;;;;;-10.89;65.50;98680.54;110351;1244;68667;-68
2022/03/12 02:42:46;;;;;;;19.10;11.40;;;;;;;-10.94;65.87;98683.06;110219;1244;59693;-67
2022/03/12 02:45:20;;;;;;;13.80;9.90;;;;;;;-11.01;66.65;98678.79;110147;1247;59742;-66
2022/03/12 02:47:51;;;;;;;9.90;6.00;;;;;;;-11.06;65.47;98678.64;110175;1245;70844;-67
2022/03/12 02:50:23;;;;;;;10.50;5.80;;;;;;;-11.07;64.26;98681.63;110173;1247;67831;-68
2022/03/12 02:52:55;;;;;;;10.30;6.00;;;;;;;-11.10;63.46;98679.52;110077;1244;68623;-70
2022/03/12 02:55:25;;;;;;;;;;;;;;;-11.09;62.14;98680.71;109630;1245;1021744;-65
2022/03/12 02:57:56;;;;;;;20.50;11.30;;;;;;;-11.09;61.92;98680.41;110110;1245;59723;-67
2022/03/12 03:00:27;;;;;;;11.70;5.60;;;;;;;-11.09;61.06;98681.23;110001;1247;70528;-68
2022/03/12 03:02:58;;;;;;;18.20;9.90;;;;;;;-11.09;60.09;98682.73;110134;1247;68586;-69
2022/03/12 03:08:09;;;;;;;13.50;7.70;;;;;;;-11.17;64.99;98684.02;110429;1244;59667;-68
2022/03/12 03:10:42;;;;;;;8.50;5.90;;;;;;;-11.20;64.11;98687.45;110323;1244;59732;-68
2022/03/12 03:13:17;;;;;;;8.90;6.10;;;;;;;-11.20;62.39;98682.70;110370;1244;71885;-65
2022/03/12 03:15:59;;;;;;;12.90;8.90;;;;;;;-11.21;61.49;98685.21;110078;1247;67827;-68
2022/03/12 03:18:39;;;;;;;5.20;3.50;;;;;;;-11.21;62.87;98684.37;110135;1245;69207;-69
2022/03/12 03:21:12;;;;;;;8.60;4.10;;;;;;;-11.23;62.95;98682.45;110287;1244;59698;-68
2022/03/12 03:23:46;;;;;;;10.80;7.40;;;;;;;-11.23;60.10;98681.10;110233;1244;59763;-67
2022/03/12 03:26:42;;;;;;;14.20;9.20;;;;;;;-11.20;59.99;98687.28;110048;1247;70818;-68
2022/03/12 03:29:15;;;;;;;20.20;12.60;;;;;;;-11.21;62.62;98683.37;110102;1245;67675;-66
2022/03/12 03:31:46;;;;;;;9.60;6.40;;;;;;;-11.31;67.30;98687.06;110057;1244;68158;-66
2022/03/12 03:34:17;;;;;;;15.50;8.20;;;;;;;-11.32;62.91;98683.84;110113;1246;60032;-67
2022/03/12 03:36:48;;;;;;;9.30;6.50;;;;;;;-11.36;64.30;98685.91;110121;1244;59729;-65
2022/03/12 03:39:18;;;;;;;9.40;6.80;;;;;;;-11.34;62.14;98682.10;110455;1244;71515;-66
2022/03/12 03:41:49;;;;;;;8.60;6.20;;;;;;;-11.28;63.05;98678.77;110101;1244;68861;-66
2022/03/12 03:44:28;;;;;;;10.40;5.60;;;;;;;-11.29;62.33;98683.79;110083;1246;69412;-61
2022/03/12 03:46:58;;;;;;;8.70;5.80;;;;;;;-11.24;62.75;98686.12;110364;1244;59730;-62
2022/03/12 03:49:28;;;;;;;9.10;6.20;;;;;;;-11.24;63.34;98695.73;110196;1244;59657;-60
2022/03/12 03:51:59;;;;;;;15.80;9.50;;;;;;;-11.28;62.41;98700.63;110319;1244;70653;-63
2022/03/12 03:54:31;;;;;;;11.30;7.60;;;;;;;-11.33;63.70;98699.29;110105;1246;68391;-64
2022/03/12 03:57:01;;;;;;;12.00;6.10;;;;;;;-11.35;62.44;98705.80;110134;1245;67936;-65
2022/03/12 03:59:31;;;;;;;;;;;;;;;-11.39;63.56;98701.60;110148;1246;59676;-62
2022/03/12 04:02:01;;;;;;;10.30;7.00;;;;;;;-11.46;66.56;98704.07;110117;1247;59779;-60
2022/03/12 04:04:35;;;;;;;6.60;5.90;;;;;;;-11.49;65.63;98707.17;110294;1244;71464;-61
2022/03/12 04:07:05;;;;;;;10.40;6.50;;;;;;;-11.53;66.59;98712.23;110113;1246;67683;-60
2022/03/12 04:09:35;;;;;;;7.00;5.30;;;;;;;-11.56;65.62;98712.45;110166;1247;68620;-60
2022/03/12 04:12:06;;;;;;;10.60;7.60;;;;;;;-11.57;63.36;98710.59;110326;1244;59751;-67
2022/03/12 04:14:36;;;;;;;9.10;5.40;;;;;;;-11.60;66.61;98714.33;110151;1245;59627;-68
2022/03/12 04:17:06;;;;;;;7.60;4.70;;;;;;;-11.61;64.03;98712.29;110127;1245;71515;-68
2022/03/12 04:19:39;;;;;;;9.10;7.30;;;;;;;-11.63;65.49;98720.30;110050;1247;68370;-66
2022/03/12 04:22:20;;;;;;;13.00;7.00;;;;;;;-11.66;68.10;98718.65;110075;1245;69240;-67
2022/03/12 04:24:49;;;;;;;6.90;4.00;;;;;;;-11.66;67.07;98722.87;110098;1247;59851;-66
2022/03/12 04:27:20;;;;;;;;;;;;;;;-11.66;64.92;98719.66;110217;1247;59670;-65
2022/03/12 04:29:50;;;;;;;5.20;4.30;;;;;;;-11.68;68.30;98721.13;110187;1246;70511;-67
2022/03/12 04:32:20;;;;;;;12.60;8.90;;;;;;;-11.64;64.75;98724.27;110377;1244;67928;-67
2022/03/12 04:34:53;;;;;;;15.00;8.90;;;;;;;-11.67;68.18;98728.05;110359;1244;69489;-65
2022/03/12 04:37:26;;;;;;;11.40;6.90;;;;;;;-11.80;68.67;98735.66;109990;1244;59675;-69
2022/03/12 04:39:56;;;;;;;12.10;6.00;;;;;;;-11.85;66.20;98735.36;109908;1244;59690;-69
2022/03/12 04:42:29;;;;;;;15.80;8.10;;;;;;;-11.87;66.43;98739.98;110412;1244;70948;-68
2022/03/12 04:45:01;;;;;;;11.00;6.80;;;;;;;-11.89;65.32;98737.20;110159;1245;68990;-69
2022/03/12 04:47:33;;;;;;;9.90;5.70;;;;;;;-11.91;64.42;98735.81;109880;1244;68428;-68
2022/03/12 04:50:19;;;;;;;7.00;5.60;;;;;;;-11.91;63.69;98735.63;110191;1244;59767;-69
2022/03/12 04:52:53;;;;;;;10.60;6.20;;;;;;;-11.93;64.88;98734.39;109883;1246;59711;-66
2022/03/12 04:55:27;;;;;;;13.30;7.80;;;;;;;-11.88;63.97;98739.11;110249;1245;71702;-68
2022/03/12 04:57:58;;;;;;;14.70;9.20;;;;;;;-11.87;66.21;98733.77;109972;1245;68606;-67
2022/03/12 05:00:31;;;;;;;12.20;8.00;;;;;;;-11.86;65.05;98736.15;110157;1247;68759;-69
2022/03/12 05:03:03;;;;;;;17.60;10.20;;;;;;;-11.79;64.65;98740.91;110135;1246;59758;-65
2022/03/12 05:05:33;;;;;;;16.60;9.20;;;;;;;-11.76;65.08;98742.02;110096;1247;59621;-63
2022/03/12 05:08:10;;;;;;;18.30;8.80;;;;;;;-11.70;64.68;98743.77;110104;1247;71400;-64
2022/03/12 05:10:41;;;;;;;11.00;6.30;;;;;;;-11.57;65.26;98742.71;110148;1247;67879;-65
2022/03/12 05:13:12;;;;;;;14.70;9.40;;;;;;;-11.42;65.46;98744.76;110146;1246;69620;-61
2022/03/12 05:15:42;;;;;;;18.00;9.50;;;;;;;-11.24;66.49;98746.21;110135;1246;59756;-67
2022/03/12 05:18:14;;;;;;;13.70;8.80;;;;;;;-11.05;65.75;98748.05;110148;1246;59646;-65
2022/03/12 05:20:46;;;;;;;21.80;10.10;;;;;;;-10.84;64.67;98742.68;110111;1247;71379;-64
2022/03/12 05:23:20;;;;;;;19.60;12.00;;;;;;;-10.58;64.26;98749.60;110070;1247;66751;-68
2022/03/12 05:25:53;;;;;;;16.70;8.40;;;;;;;-10.29;64.12;98753.52;110066;1247;68480;-64
2022/03/12 05:28:29;;;;;;;22.00;13.30;;;;;;;-9.93;64.28;98754.75;109625;1247;59920;-69
2022/03/12 05:31:04;;;;;;;14.80;9.30;;;;;;;-9.54;63.60;98747.92;110048;1247;59667;-63
2022/03/12 05:33:36;;;;;;;14.50;9.80;;;;;;;-9.17;62.97;98747.91;110113;1247;70807;-65
2022/03/12 05:36:06;;;;;;;17.70;11.30;;;;;;;-8.80;62.19;98749.02;110062;1247;68919;-60
2022/03/12 05:38:36;;;;;;;12.40;8.00;;;;;;;-8.48;61.62;98754.20;109869;1247;68738;-67
2022/03/12 05:41:11;;;;;;;12.50;8.30;;;;;;;-8.12;61.98;98756.88;110022;1245;59751;-64
2022/03/12 05:43:46;;;;;;;14.20;9.50;;;;;;;-7.72;62.33;98759.77;110059;1246;59741;-67
2022/03/12 05:46:18;;;;;;;24.50;14.00;;;;;;;-7.28;59.92;98761.86;109655;1246;72296;-61
2022/03/12 05:48:49;;;;;;;13.30;9.70;;;;;;;-6.99;56.82;98759.02;110062;1247;67842;-61
2022/03/12 05:51:19;;;;;;;18.30;12.20;;;;;;;-6.65;58.28;98761.82;110070;1247;68508;-62
2022/03/12 05:53:51;;;;;;;18.00;12.20;;;;;;;-6.33;56.82;98764.55;110078;1247;59808;-60
2022/03/12 05:56:21;;;;;;;14.20;10.00;;;;;;;-5.98;57.43;98764.72;110156;1247;59805;-67
2022/03/12 05:58:54;;;;;;;28.10;17.40;;;;;;;-5.65;55.26;98759.03;110039;1247;69934;-60
2022/03/12 06:01:24;;;;;;;25.30;17.30;;;;;;;-5.42;52.54;98751.52;110160;1247;67852;-64
2022/03/12 06:03:56;;;;;;;29.50;19.30;;;;;;;-5.18;51.61;98746.85;109656;1247;69563;-67
2022/03/12 06:06:29;;;;;;;31.40;18.80;;;;;;;-5.00;51.43;98746.71;110188;1246;59677;-62
2022/03/12 06:08:58;;;;;;;25.40;17.00;;;;;;;-4.71;51.38;98752.95;110103;1247;59772;-61
2022/03/12 06:11:29;;;;;;;17.90;12.10;;;;;;;-4.39;51.42;98754.58;110157;1245;70941;-64
2022/03/12 06:14:00;;;;;;;32.90;20.90;;;;;;;-3.71;51.44;98757.41;109873;1248;68553;-69
2022/03/12 06:16:31;;;;;;;;;;;;;;;-3.09;48.25;98758.89;110096;1247;69505;-65
2022/03/12 06:19:03;;;;;;;23.40;16.50;;;;;;;-2.77;46.54;98761.02;109974;1247;59716;-66
2022/03/12 06:21:48;;;;;;;41.00;25.60;;;;;;;-2.71;45.98;98762.23;109935;1247;59686;-64
2022/03/12 06:24:17;;;;;;;27.50;17.10;;;;;;;-3.00;46.31;98767.27;109921;1247;70784;-68
2022/03/12 06:26:46;;;;;;;33.70;21.20;;;;;;;-2.48;46.11;98776.77;110064;1247;68128;-63
2022/03/12 06:29:17;;;;;;;40.30;24.60;;;;;;;-2.80;44.86;98780.63;110074;1247;70111;-67
2022/03/12 06:31:46;;;;;;;28.10;19.00;;;;;;;-2.54;45.82;98784.44;110105;1247;59693;-62
2022/03/12 06:34:17;;;;;;;34.80;24.80;;;;;;;-2.72;44.58;98783.87;110056;1247;59679;-66
2022/03/12 06:36:46;;;;;;;;;;;;;;;-3.41;46.10;98783.66;110102;1247;71555;-67
2022/03/12 06:39:16;;;;;;;28.40;19.00;;;;;;;-3.48;45.96;98786.86;110167;1247;68619;-68
2022/03/12 06:41:45;;;;;;;31.00;19.40;;;;;;;-2.90;46.05;98783.67;109976;1246;68707;-69
2022/03/12 06:44:16;;;;;;;26.00;17.90;;;;;;;-2.31;46.35;98787.37;110095;1247;59699;-71
2022/03/12 06:46:50;;;;;;;35.30;22.10;;;;;;;-1.70;45.61;98783.90;109974;1248;59673;-67
2022/03/12 06:49:19;;;;;;;25.70;15.60;;;;;;;-1.14;45.04;98782.53;110118;1247;71421;-67
2022/03/12 06:51:49;;;;;;;25.90;16.50;;;;;;;-0.63;44.13;98780.90;110122;1247;67839;-70
2022/03/12 06:54:19;;;;;;;33.00;21.90;;;;;;;-0.13;42.23;98782.60;110122;1247;69806;-68
2022/03/12 06:56:48;;;;;;;29.90;19.50;;;;;;;0.30;39.27;98783.41;110123;1247;60189;-67
2022/03/12 06:59:18;;;;;;;28.50;18.50;;;;;;;0.73;37.64;98784.84;110030;1247;59684;-68
2022/03/12 07:01:52;;;;;;;25.60;17.40;;;;;;;0.95;37.45;98783.21;110172;1246;71561;-70
2022/03/12 07:04:25;;;;;;;30.10;16.70;;;;;;;1.17;38.12;98780.69;109757;1247;66895;-67
2022/03/12 07:06:55;;;;;;;20.90;14.50;;;;;;;1.76;38.19;98791.01;109915;1244;68651;-70
2022/03/12 07:09:36;;;;;;;24.00;16.80;;;;;;;2.25;38.50;98788.13;110169;1245;59757;-64
2022/03/12 07:12:07;;;;;;;22.80;16.20;;;;;;;2.39;36.20;98792.36;109984;1244;59697;-65
2022/03/12 07:14:41;;;;;;;19.90;12.60;;;;;;;2.35;36.52;98795.71;110090;1247;71641;-69
2022/03/12 07:17:27;;;;;;;23.30;15.30;;;;;;;2.11;35.37;98792.49;109869;1247;68131;-70
2022/03/12 07:20:13;;;;;;;17.80;13.00;;;;;;;2.27;36.64;98794.65;109939;1247;70151;-65
2022/03/12 07:23:01;;;;;;;19.40;13.90;;;;;;;2.48;36.89;98793.23;110023;1247;59745;-72
2022/03/12 07:25:46;;;;;;;24.50;17.60;;;;;;;2.01;34.77;98791.11;109887;1247;59698;-63
2022/03/12 07:28:20;;;;;;;22.90;15.30;;;;;;;2.58;34.12;98789.44;110053;1245;71054;-65
2022/03/12 07:31:05;;;;;;;24.00;16.20;;;;;;;2.63;33.34;98788.29;109927;1245;68690;-61
2022/03/12 07:33:49;;;;;;;22.70;15.80;;;;;;;2.56;33.41;98792.73;110152;1247;68999;-67
2022/03/12 07:36:27;;;;;;;27.30;17.40;;;;;;;2.76;33.39;98802.00;110195;1247;59780;-61
2022/03/12 07:39:06;;;;;;;23.40;15.30;;;;;;;3.59;32.46;98799.04;110180;1245;59713;-62
2022/03/12 07:41:44;;;;;;;20.40;14.50;;;;;;;4.08;31.41;98806.02;110164;1244;71599;-62
2022/03/12 07:44:25;;;;;;;22.80;13.50;;;;;;;4.62;30.34;98803.42;110161;1244;68638;-66
2022/03/12 07:47:00;;;;;;;18.40;13.60;;;;;;;5.31;29.10;98797.67;110361;1244;69452;-61
2022/03/12 07:49:42;;;;;;;19.90;12.80;;;;;;;5.42;28.47;98797.88;110070;1244;60072;-61
2022/03/12 07:52:23;;;;;;;17.80;11.50;;;;;;;5.78;28.51;98800.57;110171;1244;59773;-70
2022/03/12 07:55:03;;;;;;;23.10;15.50;;;;;;;5.63;27.27;98802.88;110104;1245;71542;-67
2022/03/12 07:57:42;;;;;;;24.30;18.30;;;;;;;4.69;28.30;98799.94;110069;1244;67859;-68
2022/03/12 08:00:28;;;;;;;13.60;10.70;;;;;;;3.48;29.61;98796.71;110324;1244;68573;-69
2022/03/12 08:03:10;;;;;;;13.80;10.80;;;;;;;4.70;28.48;98798.53;109964;1244;59712;-66
2022/03/12 08:05:53;;;;;;;10.80;8.20;;;;;;;4.15;27.36;98801.46;109842;1245;59739;-63
2022/03/12 08:08:34;;;;;;;11.50;7.40;;;;;;;3.66;26.91;98800.97;110137;1245;71569;-62
2022/03/12 08:14:17;;;;;;;9.20;6.70;;;;;;;4.96;27.75;98801.25;110338;1244;68859;-64
2022/03/12 08:16:59;;;;;;;10.50;6.80;;;;;;;6.23;26.43;98801.05;110367;1244;59676;-61
2022/03/12 08:19:41;;;;;;;10.90;8.20;;;;;;;7.18;25.28;98794.23;110380;1243;60065;-61
2022/03/12 08:22:32;;;;;;;10.20;6.90;;;;;;;7.64;24.57;98795.08;110127;1247;71592;-66
2022/03/12 08:25:13;;;;;;;11.20;7.20;;;;;;;8.20;23.86;98798.96;110425;1244;67854;-68
2022/03/12 08:27:47;;;;;;;12.70;9.30;;;;;;;8.69;22.98;98795.86;110359;1244;68559;-74
2022/03/12 08:30:31;;;;;;;10.60;7.90;;;;;;;7.15;23.89;98800.90;110170;1245;59795;-69
2022/03/12 08:33:12;;;;;;;12.10;8.40;;;;;;;7.35;23.67;98796.55;110125;1244;59682;-64
2022/03/12 08:35:52;;;;;;;15.30;10.60;;;;;;;8.07;23.59;98797.58;110188;1247;70648;-66
2022/03/12 08:38:27;;;;;;;;;;;;;;;7.99;23.57;98797.02;110102;1244;68475;-67
2022/03/12 08:41:13;;;;;;;14.70;11.40;;;;;;;7.22;23.90;98791.99;109876;1247;69359;-62
2022/03/12 08:43:57;;;;;;;16.30;12.40;;;;;;;7.94;24.17;98790.45;110050;1244;59703;-68
2022/03/12 08:46:42;;;;;;;13.90;10.30;;;;;;;8.27;23.13;98787.36;110164;1244;59687;-61
2022/03/12 08:49:27;;;;;;;15.10;10.40;;;;;;;7.28;22.92;98782.94;110220;1244;72244;-62
2022/03/12 08:52:08;;;;;;;14.90;10.80;;;;;;;7.79;23.27;98787.23;110074;1244;68645;-70
2022/03/12 08:54:51;;;;;;;11.60;10.10;;;;;;;8.08;23.15;98784.68;110263;1244;68678;-73
2022/03/12 08:57:27;;;;;;;11.90;8.50;;;;;;;8.79;22.21;98785.02;110049;1245;59762;-69
2022/03/12 09:00:05;;;;;;;10.30;8.30;;;;;;;9.35;21.36;98786.13;110083;1245;59732;-63
2022/03/12 09:02:43;;;;;;;12.20;9.30;;;;;;;9.33;21.78;98783.42;110059;1245;72080;-74
2022/03/12 09:05:20;;;;;;;13.30;8.20;;;;;;;9.89;22.14;98782.54;110159;1244;67962;-67
2022/03/12 09:08:00;;;;;;;10.50;7.50;;;;;;;10.77;20.44;98780.98;110320;1244;68809;-66
2022/03/12 09:10:39;;;;;;;;;;;;;;;11.07;20.55;98775.02;110307;1244;59749;-72
2022/03/12 09:13:17;;;;;;;12.80;10.40;;;;;;;10.85;20.02;98776.38;110165;1245;59681;-68
2022/03/12 09:15:53;;;;;;;11.60;9.60;;;;;;;9.55;20.51;98776.30;110351;1244;71429;-71
2022/03/12 09:18:30;;;;;;;12.70;9.70;;;;;;;8.91;21.46;98773.70;110152;1244;68183;-68
2022/03/12 09:21:09;;;;;;;10.80;8.80;;;;;;;9.20;21.80;98769.94;110213;1244;69402;-69
2022/03/12 09:23:47;;;;;;;7.30;6.00;;;;;;;9.98;21.23;98770.45;110098;1247;59696;-66
2022/03/12 09:26:27;;;;;;;9.20;6.90;;;;;;;10.25;20.28;98770.48;110121;1245;59651;-72
2022/03/12 09:29:06;;;;;;;6.20;4.40;;;;;;;11.32;19.32;98769.14;110312;1244;71338;-71
2022/03/12 09:31:48;;;;;;;7.30;5.30;;;;;;;10.35;18.52;98769.89;110305;1244;67914;-70
2022/03/12 09:34:25;;;;;;;5.80;4.70;;;;;;;8.08;20.42;98764.52;110262;1243;69200;-69
2022/03/12 09:37:10;;;;;;;7.00;5.50;;;;;;;6.45;22.17;98764.10;110126;1244;60141;-70
2022/03/12 09:39:46;;;;;;;6.20;4.40;;;;;;;7.14;21.96;98762.95;110094;1247;59716;-70
2022/03/12 09:42:17;;;;;;;6.20;5.00;;;;;;;8.44;20.99;98760.44;110152;1245;70876;-66
2022/03/12 09:44:53;;;;;;;7.20;4.80;;;;;;;7.91;21.37;98759.00;110072;1247;68459;-62
2022/03/12 09:47:33;;;;;;;6.90;5.50;;;;;;;8.04;21.10;98755.81;110309;1244;68658;-63
2022/03/12 09:50:14;;;;;;;5.80;4.60;;;;;;;8.95;21.32;98749.31;110080;1244;59719;-64
2022/03/12 09:52:52;;;;;;;7.50;5.90;;;;;;;10.54;20.16;98750.77;110286;1244;59640;-64
2022/03/12 09:55:34;;;;;;;6.30;4.50;;;;;;;11.18;18.65;98746.02;110381;1244;72121;-66
2022/03/12 09:58:20;;;;;;;8.40;5.70;;;;;;;12.16;17.89;98744.55;110209;1245;67908;-71
2022/03/12 10:00:57;;;;;;;8.30;4.90;;;;;;;12.94;16.56;98740.39;110130;1246;69431;-70
2022/03/12 10:03:44;;;;;;;6.30;4.40;;;;;;;13.58;17.18;98745.19;109902;1248;59676;-71
2022/03/12 10:06:38;;;;;;;5.10;4.10;;;;;;;13.74;16.19;98742.95;110102;1245;59618;-66
2022/03/12 10:09:26;;;;;;;5.50;4.60;;;;;;;14.28;15.44;98736.06;110253;1244;71025;-63
2022/03/12 10:12:07;;;;;;;5.40;4.90;;;;;;;13.46;16.08;98736.10;110316;1244;68618;-62
2022/03/12 10:14:50;;;;;;;6.70;4.30;;;;;;;14.44;15.37;98733.38;110403;1244;69233;-66
2022/03/12 10:17:26;;;;;;;4.90;3.80;;;;;;;13.79;14.94;98729.59;110090;1247;59768;-65
2022/03/12 10:20:08;;;;;;;6.70;4.80;;;;;;;13.99;15.17;98725.88;110100;1245;59671;-64
2022/03/12 10:22:49;;;;;;;6.10;5.40;;;;;;;14.30;15.63;98722.45;110249;1244;71500;-66
2022/03/12 10:25:25;;;;;;;;;;;;;;;14.15;15.03;98720.10;110166;1247;67844;-65
2022/03/12 10:28:05;;;;;;;6.20;4.00;;;;;;;14.01;15.77;98717.35;110331;1244;69862;-63
2022/03/12 10:30:40;;;;;;;5.70;4.70;;;;;;;14.76;15.47;98709.79;110444;1244;59704;-65
2022/03/12 10:33:25;;;;;;;9.30;7.50;;;;;;;13.96;15.72;98703.34;110034;1248;59800;-63
2022/03/12 10:36:22;;;;;;;8.60;6.30;;;;;;;13.96;16.20;98706.95;110411;1244;70698;-69
2022/03/12 10:39:03;;;;;;;5.10;4.00;;;;;;;15.55;15.31;98696.85;110323;1244;68371;-68
2022/03/12 10:41:43;;;;;;;5.90;4.50;;;;;;;16.14;14.55;98700.08;110403;1244;68626;-69
2022/03/12 10:44:22;;;;;;;5.70;4.10;;;;;;;16.27;14.01;98692.02;110159;1247;59680;-65
2022/03/12 10:47:25;;;;;;;5.60;4.40;;;;;;;16.70;14.21;98687.40;110305;1244;59647;-67
2022/03/12 10:50:11;;;;;;;5.80;4.10;;;;;;;16.93;13.65;98686.30;110104;1245;71534;-67
2022/03/12 10:52:59;;;;;;;5.20;4.00;;;;;;;17.31;13.49;98684.45;110105;1245;68629;-66
2022/03/12 10:55:47;;;;;;;6.80;4.60;;;;;;;17.95;12.97;98680.14;110282;1244;69310;-64
2022/03/12 10:58:29;;;;;;;5.60;4.40;;;;;;;16.83;12.77;98667.85;110127;1245;59692;-68
2022/03/12 11:01:06;;;;;;;6.50;5.00;;;;;;;16.55;13.00;98670.06;110317;1244;59662;-68
2022/03/12 11:03:47;;;;;;;7.60;5.20;;;;;;;16.93;13.23;98670.30;110167;1244;71566;-67
2022/03/12 11:06:26;;;;;;;5.40;3.80;;;;;;;16.86;13.01;98667.61;110156;1245;67935;-63
2022/03/12 11:09:02;;;;;;;5.00;3.70;;;;;;;17.60;12.71;98663.27;110124;1247;69472;-67
2022/03/12 11:11:45;;;;;;;9.70;7.70;;;;;;;18.26;12.72;98655.84;110077;1245;59748;-64
2022/03/12 11:14:22;;;;;;;5.90;4.80;;;;;;;18.44;11.94;98654.19;110213;1244;59678;-70
2022/03/12 11:17:06;;;;;;;5.00;3.80;;;;;;;16.11;12.21;98653.02;110147;1247;71391;-71
2022/03/12 11:19:57;;;;;;;4.80;3.80;;;;;;;17.00;12.07;98644.34;110320;1244;67983;-65
2022/03/12 11:22:39;;;;;;;5.50;3.70;;;;;;;17.93;11.65;98640.33;110356;1244;69586;-70
2022/03/12 11:25:20;;;;;;;5.50;4.10;;;;;;;18.53;11.45;98640.67;110302;1244;59709;-67
2022/03/12 11:28:16;;;;;;;6.50;4.70;;;;;;;19.18;11.61;98641.95;110131;1247;59685;-66
2022/03/12 11:31:00;;;;;;;5.80;4.30;;;;;;;19.28;11.22;98638.02;110388;1245;71820;-66
2022/03/12 11:33:41;;;;;;;6.30;4.60;;;;;;;20.03;10.64;98633.54;110310;1245;67698;-68
2022/03/12 11:36:30;;;;;;;5.60;4.00;;;;;;;20.08;10.72;98625.09;109945;1248;68310;-66
2022/03/12 11:39:06;;;;;;;7.30;4.60;;;;;;;21.08;10.99;98626.66;110390;1245;59714;-65
2022/03/12 11:42:11;;;;;;;5.30;4.60;;;;;;;21.14;10.01;98622.56;110380;1244;59655;-69
2022/03/12 11:45:02;;;;;;;8.20;4.80;;;;;;;20.68;10.17;98619.27;110173;1244;70647;-64
2022/03/12 11:47:49;;;;;;;6.00;4.30;;;;;;;19.90;10.39;98618.25;110163;1247;68563;-69
2022/03/12 11:50:35;;;;;;;6.00;4.30;;;;;;;19.37;10.51;98620.36;110289;1244;69434;-68
2022/03/12 11:53:17;;;;;;;6.90;5.00;;;;;;;16.64;11.80;98620.33;110085;1247;59732;-65
2022/03/12 11:56:26;;;;;;;5.80;4.30;;;;;;;16.04;12.50;98614.48;110116;1247;59637;-70
2022/03/12 11:59:06;;;;;;;6.70;4.50;;;;;;;17.75;12.10;98613.05;110199;1244;71519;-71
2022/03/12 12:02:05;;;;;;;5.50;3.50;;;;;;;17.91;11.22;98611.98;110410;1244;67669;-67
2022/03/12 12:04:52;;;;;;;6.70;5.10;;;;;;;18.60;10.99;98604.88;110083;1245;68696;-66